Aviation Digital Data Service (ADDS)

Output produced by METARs form (0421 UTC 26 April 2019)
found at http://www.aviationweather.gov/metar/data/
 
METAR text: RJSS 260402Z 03008KT 2500 RA BR FEW004 BKN008 BKN015 06/05 Q1007 RMK 1ST004 5ST008 7SC015 A2975
Conditions at: RJSS (SENDAI AIRPORT , JP) observed 0402 UTC 26 April 2019
Temperature: 6.0°C (43°F)
Dewpoint: 5.0°C (41°F) [RH = 93%]
Pressure (altimeter): 29.73 inches Hg (1007.0 mb)
Winds: from the NNE (30 degrees) at 9 MPH (8 knots; 4.1 m/s)
Visibility: 1.55 miles (2.49 km)
Ceiling: 800 feet AGL
Clouds: few clouds at 400 feet AGL
broken clouds at 800 feet AGL
broken clouds at 1500 feet AGL
Weather: RA BR  (moderate rain, mist)

METAR text: RJSS 260400Z 03009KT 2500 -RA BR FEW004 BKN008 BKN015 06/05 Q1007
Conditions at: RJSS (SENDAI AIRPORT , JP) observed 0400 UTC 26 April 2019
Temperature: 6.0°C (43°F)
Dewpoint: 5.0°C (41°F) [RH = 93%]
Pressure (altimeter): 29.73 inches Hg (1007.0 mb)
Winds: from the NNE (30 degrees) at 10 MPH (9 knots; 4.6 m/s)
Visibility: 1.55 miles (2.49 km)
Ceiling: 800 feet AGL
Clouds: few clouds at 400 feet AGL
broken clouds at 800 feet AGL
broken clouds at 1500 feet AGL
Weather: -RA BR  (light rain, mist)

METAR text: RJSS 260327Z 01007KT 2500 -RA BR FEW004 BKN008 BKN015 06/05 Q1007 RMK 1ST004 5ST008 7SC015 A2976
Conditions at: RJSS (SENDAI AIRPORT , JP) observed 0327 UTC 26 April 2019
Temperature: 6.0°C (43°F)
Dewpoint: 5.0°C (41°F) [RH = 93%]
Pressure (altimeter): 29.73 inches Hg (1007.0 mb)
Winds: from the N (10 degrees) at 8 MPH (7 knots; 3.6 m/s)
Visibility: 1.55 miles (2.49 km)
Ceiling: 800 feet AGL
Clouds: few clouds at 400 feet AGL
broken clouds at 800 feet AGL
broken clouds at 1500 feet AGL
Weather: -RA BR  (light rain, mist)

METAR text: RJSS 260319Z 01008KT 4000 -RA BR FEW004 SCT012 BKN020 07/05 Q1007 RMK 1ST004 4ST012 7SC020 A2976
Conditions at: RJSS (SENDAI AIRPORT , JP) observed 0319 UTC 26 April 2019
Temperature: 7.0°C (45°F)
Dewpoint: 5.0°C (41°F) [RH = 87%]
Pressure (altimeter): 29.73 inches Hg (1007.0 mb)
Winds: from the N (10 degrees) at 9 MPH (8 knots; 4.1 m/s)
Visibility: 2.49 miles (4.01 km)
Ceiling: 2000 feet AGL
Clouds: few clouds at 400 feet AGL
scattered clouds at 1200 feet AGL
broken clouds at 2000 feet AGL
Weather: -RA BR  (light rain, mist)

METAR text: RJSS 260300Z 36007KT 9999 -RA FEW004 SCT012 BKN020 07/04 Q1008
Conditions at: RJSS (SENDAI AIRPORT , JP) observed 0300 UTC 26 April 2019
Temperature: 7.0°C (45°F)
Dewpoint: 4.0°C (39°F) [RH = 81%]
Pressure (altimeter): 29.76 inches Hg (1008.0 mb)
Winds: from the N (360 degrees) at 8 MPH (7 knots; 3.6 m/s)
Visibility: 6 or more miles (10+ km)
Ceiling: 2000 feet AGL
Clouds: few clouds at 400 feet AGL
scattered clouds at 1200 feet AGL
broken clouds at 2000 feet AGL
Weather: -RA  (light rain)

METAR text: RJSS 260200Z 01008KT 9999 -RA FEW004 SCT012 BKN020 07/05 Q1008
Conditions at: RJSS (SENDAI AIRPORT , JP) observed 0200 UTC 26 April 2019
Temperature: 7.0°C (45°F)
Dewpoint: 5.0°C (41°F) [RH = 87%]
Pressure (altimeter): 29.76 inches Hg (1008.0 mb)
Winds: from the N (10 degrees) at 9 MPH (8 knots; 4.1 m/s)
Visibility: 6 or more miles (10+ km)
Ceiling: 2000 feet AGL
Clouds: few clouds at 400 feet AGL
scattered clouds at 1200 feet AGL
broken clouds at 2000 feet AGL
Weather: -RA  (light rain)

METAR text: RJSS 260100Z 33006KT 6000 RA FEW004 SCT008 BKN020 06/05 Q1009
Conditions at: RJSS (SENDAI AIRPORT , JP) observed 0100 UTC 26 April 2019
Temperature: 6.0°C (43°F)
Dewpoint: 5.0°C (41°F) [RH = 93%]
Pressure (altimeter): 29.79 inches Hg (1009.0 mb)
Winds: from the NNW (330 degrees) at 7 MPH (6 knots; 3.1 m/s)
Visibility: 4 miles ( 6 km)
Ceiling: 2000 feet AGL
Clouds: few clouds at 400 feet AGL
scattered clouds at 800 feet AGL
broken clouds at 2000 feet AGL
Weather: RA  (moderate rain)

METAR text: RJSS 260042Z 03009KT 6000 -RA FEW004 SCT012 BKN020 07/05 Q1008 RMK 1ST004 4ST012 7SC020 A2977 P/FR
Conditions at: RJSS (SENDAI AIRPORT , JP) observed 0042 UTC 26 April 2019
Temperature: 7.0°C (45°F)
Dewpoint: 5.0°C (41°F) [RH = 87%]
Pressure (altimeter): 29.76 inches Hg (1008.0 mb)
Winds: from the NNE (30 degrees) at 10 MPH (9 knots; 4.6 m/s)
Visibility: 4 miles ( 6 km)
Ceiling: 2000 feet AGL
Clouds: few clouds at 400 feet AGL
scattered clouds at 1200 feet AGL
broken clouds at 2000 feet AGL
Weather: -RA  (light rain)

METAR text: RJSS 260022Z 36008KT 330V030 3000 R27/2000N RA BR FEW004 SCT012 BKN020 07/05 Q1009 RMK 1ST004 4ST012 7SC020 A2981
Conditions at: RJSS (SENDAI AIRPORT , JP) observed 0022 UTC 26 April 2019
Temperature: 7.0°C (45°F)
Dewpoint: 5.0°C (41°F) [RH = 87%]
Pressure (altimeter): 29.79 inches Hg (1009.0 mb)
Winds: from the N (360 degrees) at 9 MPH (8 knots; 4.1 m/s)
Visibility: 1.86 miles (2.99 km)
Ceiling: 2000 feet AGL
Clouds: few clouds at 400 feet AGL
scattered clouds at 1200 feet AGL
broken clouds at 2000 feet AGL
Weather: RA BR  (moderate rain, mist)

METAR text: RJSS 260016Z 01008KT 4000 RA BR FEW004 SCT012 BKN015 07/05 Q1009 RMK 1ST004 4ST012 7SC015 A2981
Conditions at: RJSS (SENDAI AIRPORT , JP) observed 0016 UTC 26 April 2019
Temperature: 7.0°C (45°F)
Dewpoint: 5.0°C (41°F) [RH = 87%]
Pressure (altimeter): 29.79 inches Hg (1009.0 mb)
Winds: from the N (10 degrees) at 9 MPH (8 knots; 4.1 m/s)
Visibility: 2.49 miles (4.01 km)
Ceiling: 1500 feet AGL
Clouds: few clouds at 400 feet AGL
scattered clouds at 1200 feet AGL
broken clouds at 1500 feet AGL
Weather: RA BR  (moderate rain, mist)

METAR text: RJSS 260006Z 01009KT 3000 RA BR FEW004 SCT012 BKN015 06/05 Q1009 RMK 1ST004 4ST012 7SC015 A2982
Conditions at: RJSS (SENDAI AIRPORT , JP) observed 0006 UTC 26 April 2019
Temperature: 6.0°C (43°F)
Dewpoint: 5.0°C (41°F) [RH = 93%]
Pressure (altimeter): 29.79 inches Hg (1009.0 mb)
Winds: from the N (10 degrees) at 10 MPH (9 knots; 4.6 m/s)
Visibility: 1.86 miles (2.99 km)
Ceiling: 1500 feet AGL
Clouds: few clouds at 400 feet AGL
scattered clouds at 1200 feet AGL
broken clouds at 1500 feet AGL
Weather: RA BR  (moderate rain, mist)

METAR text: RJSS 260000Z 01008KT 6000 -RA BR FEW004 SCT012 BKN015 07/05 Q1009
Conditions at: RJSS (SENDAI AIRPORT , JP) observed 0000 UTC 26 April 2019
Temperature: 7.0°C (45°F)
Dewpoint: 5.0°C (41°F) [RH = 87%]
Pressure (altimeter): 29.79 inches Hg (1009.0 mb)
Winds: from the N (10 degrees) at 9 MPH (8 knots; 4.1 m/s)
Visibility: 4 miles ( 6 km)
Ceiling: 1500 feet AGL
Clouds: few clouds at 400 feet AGL
scattered clouds at 1200 feet AGL
broken clouds at 1500 feet AGL
Weather: -RA BR  (light rain, mist)

METAR text: RJSS 252342Z 36007KT 4000 -RA BR FEW004 SCT012 BKN015 07/06 Q1009 RMK 1ST004 4ST012 7SC015 A2981 8000SW
Conditions at: RJSS (SENDAI AIRPORT , JP) observed 2342 UTC 25 April 2019
Temperature: 7.0°C (45°F)
Dewpoint: 6.0°C (43°F) [RH = 93%]
Pressure (altimeter): 29.79 inches Hg (1009.0 mb)
Winds: from the N (360 degrees) at 8 MPH (7 knots; 3.6 m/s)
Visibility: 2.49 miles (4.01 km)
Ceiling: 1500 feet AGL
Clouds: few clouds at 400 feet AGL
scattered clouds at 1200 feet AGL
broken clouds at 1500 feet AGL
Weather: -RA BR  (light rain, mist)

METAR text: RJSS 252319Z 35006KT 310V020 4000 RA BR FEW003 BKN012 BKN015 07/06 Q1009 RMK 2ST003 6ST012 7SC015 A2982
Conditions at: RJSS (SENDAI AIRPORT , JP) observed 2319 UTC 25 April 2019
Temperature: 7.0°C (45°F)
Dewpoint: 6.0°C (43°F) [RH = 93%]
Pressure (altimeter): 29.79 inches Hg (1009.0 mb)
Winds: from the N (350 degrees) at 7 MPH (6 knots; 3.1 m/s)
Visibility: 2.49 miles (4.01 km)
Ceiling: 1200 feet AGL
Clouds: few clouds at 300 feet AGL
broken clouds at 1200 feet AGL
broken clouds at 1500 feet AGL
Weather: RA BR  (moderate rain, mist)

METAR text: RJSS 252300Z 35006KT 2500 RA BR FEW002 SCT005 BKN012 07/06 Q1009
Conditions at: RJSS (SENDAI AIRPORT , JP) observed 2300 UTC 25 April 2019
Temperature: 7.0°C (45°F)
Dewpoint: 6.0°C (43°F) [RH = 93%]
Pressure (altimeter): 29.79 inches Hg (1009.0 mb)
Winds: from the N (350 degrees) at 7 MPH (6 knots; 3.1 m/s)
Visibility: 1.55 miles (2.49 km)
Ceiling: 1200 feet AGL
Clouds: few clouds at 200 feet AGL
scattered clouds at 500 feet AGL
broken clouds at 1200 feet AGL
Weather: RA BR  (moderate rain, mist)

METAR text: RJSS 252240Z 02008KT 340V060 2000 R27/1400VP2000U RA BR FEW002 SCT005 BKN012 07/06 Q1009 RMK 1ST002 3ST005 7ST012 A2981
Conditions at: RJSS (SENDAI AIRPORT , JP) observed 2240 UTC 25 April 2019
Temperature: 7.0°C (45°F)
Dewpoint: 6.0°C (43°F) [RH = 93%]
Pressure (altimeter): 29.79 inches Hg (1009.0 mb)
Winds: from the NNE (20 degrees) at 9 MPH (8 knots; 4.1 m/s)
Visibility: 1.24 miles (2.00 km)
Ceiling: 1200 feet AGL
Clouds: few clouds at 200 feet AGL
scattered clouds at 500 feet AGL
broken clouds at 1200 feet AGL
Weather: RA BR  (moderate rain, mist)

METAR text: RJSS 252229Z 04008KT 2500 +RA BR FEW002 SCT005 BKN012 08/05 Q1009 RMK 1ST002 3ST005 7ST012 A2980
Conditions at: RJSS (SENDAI AIRPORT , JP) observed 2229 UTC 25 April 2019
Temperature: 8.0°C (46°F)
Dewpoint: 5.0°C (41°F) [RH = 81%]
Pressure (altimeter): 29.79 inches Hg (1009.0 mb)
Winds: from the NE (40 degrees) at 9 MPH (8 knots; 4.1 m/s)
Visibility: 1.55 miles (2.49 km)
Ceiling: 1200 feet AGL
Clouds: few clouds at 200 feet AGL
scattered clouds at 500 feet AGL
broken clouds at 1200 feet AGL
Weather: +RA BR  (heavy rain, mist)

METAR text: RJSS 252200Z 02005KT 8000 -RA FEW005 SCT018 BKN020 08/06 Q1009
Conditions at: RJSS (SENDAI AIRPORT , JP) observed 2200 UTC 25 April 2019
Temperature: 8.0°C (46°F)
Dewpoint: 6.0°C (43°F) [RH = 87%]
Pressure (altimeter): 29.79 inches Hg (1009.0 mb)
Winds: from the NNE (20 degrees) at 6 MPH (5 knots; 2.6 m/s)
Visibility: 5 miles ( 8 km)
Ceiling: 2000 feet AGL
Clouds: few clouds at 500 feet AGL
scattered clouds at 1800 feet AGL
broken clouds at 2000 feet AGL
Weather: -RA  (light rain)

METAR text: RJSS 252100Z 02005KT 8000 -RA FEW004 SCT010 BKN020 08/06 Q1009
Conditions at: RJSS (SENDAI AIRPORT , JP) observed 2100 UTC 25 April 2019
Temperature: 8.0°C (46°F)
Dewpoint: 6.0°C (43°F) [RH = 87%]
Pressure (altimeter): 29.79 inches Hg (1009.0 mb)
Winds: from the NNE (20 degrees) at 6 MPH (5 knots; 2.6 m/s)
Visibility: 5 miles ( 8 km)
Ceiling: 2000 feet AGL
Clouds: few clouds at 400 feet AGL
scattered clouds at 1000 feet AGL
broken clouds at 2000 feet AGL
Weather: -RA  (light rain)

METAR text: RJSS 252030Z 02004KT 360V060 7000 -RA FEW004 SCT006 BKN020 08/06 Q1009 RMK 1ST004 3ST006 7SC020 A2980
Conditions at: RJSS (SENDAI AIRPORT , JP) observed 2030 UTC 25 April 2019
Temperature: 8.0°C (46°F)
Dewpoint: 6.0°C (43°F) [RH = 87%]
Pressure (altimeter): 29.79 inches Hg (1009.0 mb)
Winds: from the NNE (20 degrees) at 5 MPH (4 knots; 2.1 m/s)
Visibility: 4 miles ( 7 km)
Ceiling: 2000 feet AGL
Clouds: few clouds at 400 feet AGL
scattered clouds at 600 feet AGL
broken clouds at 2000 feet AGL
Weather: -RA  (light rain)

METAR text: RJSS 251215Z VRB02KT 7000 FEW005 SCT008 BKN015 11/08 Q1007 RMK 1ST005 4ST008 7CU015 A2975
Conditions at: RJSS (SENDAI AIRPORT , JP) observed 1215 UTC 25 April 2019
Temperature: 11.0°C (52°F)
Dewpoint: 8.0°C (46°F) [RH = 82%]
Pressure (altimeter): 29.73 inches Hg (1007.0 mb)
Winds: variable direction winds at 2 MPH (2 knots; 1.0 m/s)
Visibility: 4 miles ( 7 km)
Ceiling: 1500 feet AGL
Clouds: few clouds at 500 feet AGL
scattered clouds at 800 feet AGL
broken clouds at 1500 feet AGL
Weather: no significant weather observed at this time

METAR text: RJSS 251200Z 12004KT 090V150 7000 FEW004 BKN008 BKN040 11/08 Q1007
Conditions at: RJSS (SENDAI AIRPORT , JP) observed 1200 UTC 25 April 2019
Temperature: 11.0°C (52°F)
Dewpoint: 8.0°C (46°F) [RH = 82%]
Pressure (altimeter): 29.73 inches Hg (1007.0 mb)
Winds: from the ESE (120 degrees) at 5 MPH (4 knots; 2.1 m/s)
Visibility: 4 miles ( 7 km)
Ceiling: 800 feet AGL
Clouds: few clouds at 400 feet AGL
broken clouds at 800 feet AGL
broken clouds at 4000 feet AGL
Weather: no significant weather observed at this time

METAR text: RJSS 251100Z 11005KT 070V150 7000 FEW004 BKN008 BKN040 12/09 Q1005
Conditions at: RJSS (SENDAI AIRPORT , JP) observed 1100 UTC 25 April 2019
Temperature: 12.0°C (54°F)
Dewpoint: 9.0°C (48°F) [RH = 82%]
Pressure (altimeter): 29.68 inches Hg (1005.0 mb)
Winds: from the ESE (110 degrees) at 6 MPH (5 knots; 2.6 m/s)
Visibility: 4 miles ( 7 km)
Ceiling: 800 feet AGL
Clouds: few clouds at 400 feet AGL
broken clouds at 800 feet AGL
broken clouds at 4000 feet AGL
Weather: no significant weather observed at this time

METAR text: RJSS 251023Z VRB01KT 7000 -SHRA FEW003 SCT005 BKN007 12/10 Q1005 RMK 1ST003 3ST005 5ST007 A2970
Conditions at: RJSS (SENDAI AIRPORT , JP) observed 1023 UTC 25 April 2019
Temperature: 12.0°C (54°F)
Dewpoint: 10.0°C (50°F) [RH = 88%]
Pressure (altimeter): 29.68 inches Hg (1005.0 mb)
Winds: variable direction winds at 1 MPH (1 knots; 0.5 m/s)
Visibility: 4 miles ( 7 km)
Ceiling: 700 feet AGL
Clouds: few clouds at 300 feet AGL
scattered clouds at 500 feet AGL
broken clouds at 700 feet AGL
Weather: -SHRA  (light rain showers)

METAR text: RJSS 251000Z 15003KT 070V220 7000 FEW003 BKN005 BKN050 12/10 Q1005
Conditions at: RJSS (SENDAI AIRPORT , JP) observed 1000 UTC 25 April 2019
Temperature: 12.0°C (54°F)
Dewpoint: 10.0°C (50°F) [RH = 88%]
Pressure (altimeter): 29.68 inches Hg (1005.0 mb)
Winds: from the SSE (150 degrees) at 3 MPH (3 knots; 1.5 m/s)
Visibility: 4 miles ( 7 km)
Ceiling: 500 feet AGL
Clouds: few clouds at 300 feet AGL
broken clouds at 500 feet AGL
broken clouds at 5000 feet AGL
Weather: no significant weather observed at this time

METAR text: RJSS 250941Z 11004KT 060V140 7000 FEW002 SCT003 BKN005 12/10 Q1004 RMK 1ST002 3ST003 5ST005 A2967
Conditions at: RJSS (SENDAI AIRPORT , JP) observed 0941 UTC 25 April 2019
Temperature: 12.0°C (54°F)
Dewpoint: 10.0°C (50°F) [RH = 88%]
Pressure (altimeter): 29.65 inches Hg (1004.0 mb)
Winds: from the ESE (110 degrees) at 5 MPH (4 knots; 2.1 m/s)
Visibility: 4 miles ( 7 km)
Ceiling: 500 feet AGL
Clouds: few clouds at 200 feet AGL
scattered clouds at 300 feet AGL
broken clouds at 500 feet AGL
Weather: no significant weather observed at this time

METAR text: RJSS 250900Z 10008KT 6000 BR FEW002 BKN003 BKN050 12/11 Q1003
Conditions at: RJSS (SENDAI AIRPORT , JP) observed 0900 UTC 25 April 2019
Temperature: 12.0°C (54°F)
Dewpoint: 11.0°C (52°F) [RH = 94%]
Pressure (altimeter): 29.62 inches Hg (1003.0 mb)
Winds: from the E (100 degrees) at 9 MPH (8 knots; 4.1 m/s)
Visibility: 4 miles ( 6 km)
Ceiling: 300 feet AGL
Clouds: few clouds at 200 feet AGL
broken clouds at 300 feet AGL
broken clouds at 5000 feet AGL
Weather: BR  (mist)

METAR text: RJSS 250838Z 10011KT 6000 BR FEW002 BKN003 BKN050 13/12 Q1003 RMK 1ST002 5ST003 6CU050 A2963 3000S-W
Conditions at: RJSS (SENDAI AIRPORT , JP) observed 0838 UTC 25 April 2019
Temperature: 13.0°C (55°F)
Dewpoint: 12.0°C (54°F) [RH = 94%]
Pressure (altimeter): 29.62 inches Hg (1003.0 mb)
Winds: from the E (100 degrees) at 13 MPH (11 knots; 5.7 m/s)
Visibility: 4 miles ( 6 km)
Ceiling: 300 feet AGL
Clouds: few clouds at 200 feet AGL
broken clouds at 300 feet AGL
broken clouds at 5000 feet AGL
Weather: BR  (mist)

METAR text: RJSS 250820Z 11008KT 070V140 4000 BR FEW002 BKN003 BKN050 15/14 Q1003 RMK 1ST002 5ST003 6CU050 A2962 9999N-E
Conditions at: RJSS (SENDAI AIRPORT , JP) observed 0820 UTC 25 April 2019
Temperature: 15.0°C (59°F)
Dewpoint: 14.0°C (57°F) [RH = 94%]
Pressure (altimeter): 29.62 inches Hg (1003.0 mb)
Winds: from the ESE (110 degrees) at 9 MPH (8 knots; 4.1 m/s)
Visibility: 2.49 miles (4.01 km)
Ceiling: 300 feet AGL
Clouds: few clouds at 200 feet AGL
broken clouds at 300 feet AGL
broken clouds at 5000 feet AGL
Weather: BR  (mist)

METAR text: RJSS 250800Z 12006KT 060V140 9999 BR FEW015 SCT050 BKN130 15/13 Q1002
Conditions at: RJSS (SENDAI AIRPORT , JP) observed 0800 UTC 25 April 2019
Temperature: 15.0°C (59°F)
Dewpoint: 13.0°C (55°F) [RH = 88%]
Pressure (altimeter): 29.59 inches Hg (1002.0 mb)
Winds: from the ESE (120 degrees) at 7 MPH (6 knots; 3.1 m/s)
Visibility: 6 or more miles (10+ km)
Ceiling: 13000 feet AGL
Clouds: few clouds at 1500 feet AGL
scattered clouds at 5000 feet AGL
broken clouds at 13000 feet AGL
Weather: BR  (mist)

METAR text: RJSS 250700Z 06006KT 8000 -SHRA FEW015 SCT030 BKN040 16/15 Q1002
Conditions at: RJSS (SENDAI AIRPORT , JP) observed 0700 UTC 25 April 2019
Temperature: 16.0°C (61°F)
Dewpoint: 15.0°C (59°F) [RH = 94%]
Pressure (altimeter): 29.59 inches Hg (1002.0 mb)
Winds: from the ENE (60 degrees) at 7 MPH (6 knots; 3.1 m/s)
Visibility: 5 miles ( 8 km)
Ceiling: 4000 feet AGL
Clouds: few clouds at 1500 feet AGL
scattered clouds at 3000 feet AGL
broken clouds at 4000 feet AGL
Weather: -SHRA  (light rain showers)

METAR text: RJSS 250600Z 07006KT 9000 FEW015 BKN040 17/14 Q1001
Conditions at: RJSS (SENDAI AIRPORT , JP) observed 0600 UTC 25 April 2019
Temperature: 17.0°C (63°F)
Dewpoint: 14.0°C (57°F) [RH = 82%]
Pressure (altimeter): 29.56 inches Hg (1001.0 mb)
Winds: from the ENE (70 degrees) at 7 MPH (6 knots; 3.1 m/s)
Visibility: 6 miles ( 9 km)
Ceiling: 4000 feet AGL
Clouds: few clouds at 1500 feet AGL
broken clouds at 4000 feet AGL
Weather: no significant weather observed at this time

METAR text: RJSS 250500Z 05008KT 7000 FEW015 SCT040 BKN050 18/16 Q1002
Conditions at: RJSS (SENDAI AIRPORT , JP) observed 0500 UTC 25 April 2019
Temperature: 18.0°C (64°F)
Dewpoint: 16.0°C (61°F) [RH = 88%]
Pressure (altimeter): 29.59 inches Hg (1002.0 mb)
Winds: from the NE (50 degrees) at 9 MPH (8 knots; 4.1 m/s)
Visibility: 4 miles ( 7 km)
Ceiling: 5000 feet AGL
Clouds: few clouds at 1500 feet AGL
scattered clouds at 4000 feet AGL
broken clouds at 5000 feet AGL
Weather: no significant weather observed at this time

METAR text: RJSS 250400Z 01006KT 6000 -SHRA FEW015 BKN050 19/17 Q1002
Conditions at: RJSS (SENDAI AIRPORT , JP) observed 0400 UTC 25 April 2019
Temperature: 19.0°C (66°F)
Dewpoint: 17.0°C (63°F) [RH = 88%]
Pressure (altimeter): 29.59 inches Hg (1002.0 mb)
Winds: from the N (10 degrees) at 7 MPH (6 knots; 3.1 m/s)
Visibility: 4 miles ( 6 km)
Ceiling: 5000 feet AGL
Clouds: few clouds at 1500 feet AGL
broken clouds at 5000 feet AGL
Weather: -SHRA  (light rain showers)

METAR text: RJSS 250327Z 06003KT 020V130 4000 BR FEW002 BKN050 18/16 Q1001 RMK 1ST002 6CU050 A2959
Conditions at: RJSS (SENDAI AIRPORT , JP) observed 0327 UTC 25 April 2019
Temperature: 18.0°C (64°F)
Dewpoint: 16.0°C (61°F) [RH = 88%]
Pressure (altimeter): 29.56 inches Hg (1001.0 mb)
Winds: from the ENE (60 degrees) at 3 MPH (3 knots; 1.5 m/s)
Visibility: 2.49 miles (4.01 km)
Ceiling: 5000 feet AGL
Clouds: few clouds at 200 feet AGL
broken clouds at 5000 feet AGL
Weather: BR  (mist)

METAR text: RJSS 250300Z 08003KT 040V150 3000 -SHRA PRFG BR FEW002 SCT020 BKN100 17/16 Q1001
Conditions at: RJSS (SENDAI AIRPORT , JP) observed 0300 UTC 25 April 2019
Temperature: 17.0°C (63°F)
Dewpoint: 16.0°C (61°F) [RH = 94%]
Pressure (altimeter): 29.56 inches Hg (1001.0 mb)
Winds: from the E (80 degrees) at 3 MPH (3 knots; 1.5 m/s)
Visibility: 1.86 miles (2.99 km)
Ceiling: 10000 feet AGL
Clouds: few clouds at 200 feet AGL
scattered clouds at 2000 feet AGL
broken clouds at 10000 feet AGL
Weather: -SHRA PRFG BR  (light rain showers, partial fog, mist)

METAR text: RJSS 250242Z VRB02KT 1500 R27/P2000N -SHRA BCFG BR FEW001 SCT002 BKN020 16/15 Q1002 RMK 1ST001 3ST002 6CU020 A2959
Conditions at: RJSS (SENDAI AIRPORT , JP) observed 0242 UTC 25 April 2019
Temperature: 16.0°C (61°F)
Dewpoint: 15.0°C (59°F) [RH = 94%]
Pressure (altimeter): 29.59 inches Hg (1002.0 mb)
Winds: variable direction winds at 2 MPH (2 knots; 1.0 m/s)
Visibility: 0.93 miles (1.50 km)
Ceiling: 2000 feet AGL
Clouds: few clouds at 100 feet AGL
scattered clouds at 200 feet AGL
broken clouds at 2000 feet AGL
Weather: -SHRA BCFG BR  (light rain showers, patches of fog, mist)

METAR text: RJSS 250224Z 12004KT 0900 R27/1500VP2000N -SHRA FG BKN001 14/14 Q1002 RMK 7ST001 A2960
Conditions at: RJSS (SENDAI AIRPORT , JP) observed 0224 UTC 25 April 2019
Temperature: 14.0°C (57°F)
Dewpoint: 14.0°C (57°F) [RH = 100%]
Pressure (altimeter): 29.59 inches Hg (1002.0 mb)
Winds: from the ESE (120 degrees) at 5 MPH (4 knots; 2.1 m/s)
Visibility: 0.56 miles (0.90 km)
Ceiling: 100 feet AGL
Clouds: broken clouds at 100 feet AGL
Weather: -SHRA FG  (light rain showers, fog)

METAR text: RJSS 250209Z 08004KT 3000 R27/P2000N -SHRA PRFG BR FEW005 BKN020 BKN100 16/15 Q1002 RMK 1ST005 5CU020 6AC100 A2959 1000NE-S SEA FG APCH STN
Conditions at: RJSS (SENDAI AIRPORT , JP) observed 0209 UTC 25 April 2019
Temperature: 16.0°C (61°F)
Dewpoint: 15.0°C (59°F) [RH = 94%]
Pressure (altimeter): 29.59 inches Hg (1002.0 mb)
Winds: from the E (80 degrees) at 5 MPH (4 knots; 2.1 m/s)
Visibility: 1.86 miles (2.99 km)
Ceiling: 2000 feet AGL
Clouds: few clouds at 500 feet AGL
broken clouds at 2000 feet AGL
broken clouds at 10000 feet AGL
Weather: -SHRA PRFG BR  (light rain showers, partial fog, mist)

METAR text: RJSS 250200Z 08004KT 4000 -SHRA BR FEW005 SCT020 BKN130 17/15 Q1002
Conditions at: RJSS (SENDAI AIRPORT , JP) observed 0200 UTC 25 April 2019
Temperature: 17.0°C (63°F)
Dewpoint: 15.0°C (59°F) [RH = 88%]
Pressure (altimeter): 29.59 inches Hg (1002.0 mb)
Winds: from the E (80 degrees) at 5 MPH (4 knots; 2.1 m/s)
Visibility: 2.49 miles (4.01 km)
Ceiling: 13000 feet AGL
Clouds: few clouds at 500 feet AGL
scattered clouds at 2000 feet AGL
broken clouds at 13000 feet AGL
Weather: -SHRA BR  (light rain showers, mist)

METAR text: RJSS 250127Z 06004KT 3500 -SHRA BR FEW005 SCT020 BKN130 16/15 Q1003 RMK 1ST005 4CU020 6AC130 A2962
Conditions at: RJSS (SENDAI AIRPORT , JP) observed 0127 UTC 25 April 2019
Temperature: 16.0°C (61°F)
Dewpoint: 15.0°C (59°F) [RH = 94%]
Pressure (altimeter): 29.62 inches Hg (1003.0 mb)
Winds: from the ENE (60 degrees) at 5 MPH (4 knots; 2.1 m/s)
Visibility: 2.17 miles (3.49 km)
Ceiling: 13000 feet AGL
Clouds: few clouds at 500 feet AGL
scattered clouds at 2000 feet AGL
broken clouds at 13000 feet AGL
Weather: -SHRA BR  (light rain showers, mist)

METAR text: RJSS 250100Z 07005KT 3000 -SHRA BCFG BR FEW005 SCT020 BKN130 16/14 Q1003
Conditions at: RJSS (SENDAI AIRPORT , JP) observed 0100 UTC 25 April 2019
Temperature: 16.0°C (61°F)
Dewpoint: 14.0°C (57°F) [RH = 88%]
Pressure (altimeter): 29.62 inches Hg (1003.0 mb)
Winds: from the ENE (70 degrees) at 6 MPH (5 knots; 2.6 m/s)
Visibility: 1.86 miles (2.99 km)
Ceiling: 13000 feet AGL
Clouds: few clouds at 500 feet AGL
scattered clouds at 2000 feet AGL
broken clouds at 13000 feet AGL
Weather: -SHRA BCFG BR  (light rain showers, patches of fog, mist)

METAR text: RJSS 250000Z 06003KT 360V120 3000 BR FEW001 SCT015 BKN020 16/15 Q1003
Conditions at: RJSS (SENDAI AIRPORT , JP) observed 0000 UTC 25 April 2019
Temperature: 16.0°C (61°F)
Dewpoint: 15.0°C (59°F) [RH = 94%]
Pressure (altimeter): 29.62 inches Hg (1003.0 mb)
Winds: from the ENE (60 degrees) at 3 MPH (3 knots; 1.5 m/s)
Visibility: 1.86 miles (2.99 km)
Ceiling: 2000 feet AGL
Clouds: few clouds at 100 feet AGL
scattered clouds at 1500 feet AGL
broken clouds at 2000 feet AGL
Weather: BR  (mist)

METAR text: RJSS 242300Z 36003KT 330V040 2500 -RA BR FEW001 SCT004 BKN015 14/14 Q1003
Conditions at: RJSS (SENDAI AIRPORT , JP) observed 2300 UTC 24 April 2019
Temperature: 14.0°C (57°F)
Dewpoint: 14.0°C (57°F) [RH = 100%]
Pressure (altimeter): 29.62 inches Hg (1003.0 mb)
Winds: from the N (360 degrees) at 3 MPH (3 knots; 1.5 m/s)
Visibility: 1.55 miles (2.49 km)
Ceiling: 1500 feet AGL
Clouds: few clouds at 100 feet AGL
scattered clouds at 400 feet AGL
broken clouds at 1500 feet AGL
Weather: -RA BR  (light rain, mist)

METAR text: RJSS 242244Z VRB01KT 1500 R27/P2000N -RA BR FEW001 SCT002 BKN004 14/13 Q1003 RMK 1ST001 3ST002 7ST004 A2964
Conditions at: RJSS (SENDAI AIRPORT , JP) observed 2244 UTC 24 April 2019
Temperature: 14.0°C (57°F)
Dewpoint: 13.0°C (55°F) [RH = 94%]
Pressure (altimeter): 29.62 inches Hg (1003.0 mb)
Winds: variable direction winds at 1 MPH (1 knots; 0.5 m/s)
Visibility: 0.93 miles (1.50 km)
Ceiling: 400 feet AGL
Clouds: few clouds at 100 feet AGL
scattered clouds at 200 feet AGL
broken clouds at 400 feet AGL
Weather: -RA BR  (light rain, mist)

METAR text: RJSS 242200Z 00000KT 2000 -RA BR FEW001 SCT003 BKN020 14/13 Q1004
Conditions at: RJSS (SENDAI AIRPORT , JP) observed 2200 UTC 24 April 2019
Temperature: 14.0°C (57°F)
Dewpoint: 13.0°C (55°F) [RH = 94%]
Pressure (altimeter): 29.65 inches Hg (1004.0 mb)
Winds: calm
Visibility: 1.24 miles (2.00 km)
Ceiling: 2000 feet AGL
Clouds: few clouds at 100 feet AGL
scattered clouds at 300 feet AGL
broken clouds at 2000 feet AGL
Weather: -RA BR  (light rain, mist)

METAR text: RJSS 242124Z 14003KT 1500 R27/P2000N -RA BR FEW002 SCT005 BKN090 13/13 Q1004 RMK 1ST002 3ST005 7AC090 A2965
Conditions at: RJSS (SENDAI AIRPORT , JP) observed 2124 UTC 24 April 2019
Temperature: 13.0°C (55°F)
Dewpoint: 13.0°C (55°F) [RH = 100%]
Pressure (altimeter): 29.65 inches Hg (1004.0 mb)
Winds: from the SE (140 degrees) at 3 MPH (3 knots; 1.5 m/s)
Visibility: 0.93 miles (1.50 km)
Ceiling: 9000 feet AGL
Clouds: few clouds at 200 feet AGL
scattered clouds at 500 feet AGL
broken clouds at 9000 feet AGL
Weather: -RA BR  (light rain, mist)

METAR text: RJSS 242100Z VRB01KT 2000 -RA BR FEW002 SCT005 BKN090 14/13 Q1003
Conditions at: RJSS (SENDAI AIRPORT , JP) observed 2100 UTC 24 April 2019
Temperature: 14.0°C (57°F)
Dewpoint: 13.0°C (55°F) [RH = 94%]
Pressure (altimeter): 29.62 inches Hg (1003.0 mb)
Winds: variable direction winds at 1 MPH (1 knots; 0.5 m/s)
Visibility: 1.24 miles (2.00 km)
Ceiling: 9000 feet AGL
Clouds: few clouds at 200 feet AGL
scattered clouds at 500 feet AGL
broken clouds at 9000 feet AGL
Weather: -RA BR  (light rain, mist)

METAR text: RJSS 242030Z 16003KT 120V200 2000 -RA BR FEW002 SCT030 BKN100 13/13 Q1003 RMK 2ST002 3SC030 7AC100 A2964
Conditions at: RJSS (SENDAI AIRPORT , JP) observed 2030 UTC 24 April 2019
Temperature: 13.0°C (55°F)
Dewpoint: 13.0°C (55°F) [RH = 100%]
Pressure (altimeter): 29.62 inches Hg (1003.0 mb)
Winds: from the SSE (160 degrees) at 3 MPH (3 knots; 1.5 m/s)
Visibility: 1.24 miles (2.00 km)
Ceiling: 10000 feet AGL
Clouds: few clouds at 200 feet AGL
scattered clouds at 3000 feet AGL
broken clouds at 10000 feet AGL
Weather: -RA BR  (light rain, mist)

Forecast for: RJSS (SENDAI AIRPORT , JP)
Text: TAF RJSS 252305Z 2600/2706 04010KT 8000 -RA FEW005 BKN015 BKN030
Forecast period: 0000 UTC 26 April 2019 to 0300 UTC 27 April 2019
Forecast type: FROM: standard forecast or significant change
Winds: from the NE (40 degrees) at 12 MPH (10 knots; 5.1 m/s)
Visibility: 5 miles (8 km)
Ceiling: 1500 feet AGL
Clouds: few clouds at 500 feet AGL
broken clouds at 1500 feet AGL
broken clouds at 3000 feet AGL
Weather: -RA  (light rain)
Text: TEMPO 2600/2606 4000 -RA BR FEW003 BKN008 BKN015
Forecast period: 0000 to 0600 UTC 26 April 2019
Forecast type: TEMPORARY: The following changes expected for less than half the time period
Visibility: 2.49 miles (4.01 km)
Ceiling: 800 feet AGL
Clouds: few clouds at 300 feet AGL
broken clouds at 800 feet AGL
broken clouds at 1500 feet AGL
Weather: -RA BR  (light rain, mist)
Text: BECMG 2703/2706 32015KT
Forecast period: 0300 to 0600 UTC 27 April 2019
Forecast type: BECOMING: Conditions expected to become as follows by 0600 UTC 27 April 2019
Winds: from the NW (320 degrees) at 17 MPH (15 knots; 7.7 m/s)
Visibility: 5 miles (8 km)
Ceiling: 1500 feet AGL
Clouds: few clouds at 500 feet AGL
broken clouds at 1500 feet AGL
broken clouds at 3000 feet AGL
Weather: -RA  (light rain)